Weather History for KENV - March, 2014

Change the Weather History Date:

Sunday, March 23, 2014

  Actual Average Record
Temperature  
Mean Temperature 40 °F -  
Max Temperature 57 °F 58 °F 75 °F (2004)
Min Temperature 24 °F 35 °F 22 °F (1966)
Degree Days  
Heating Degree Days 24    
Moisture  
Dew Point 11 °F    
Average Humidity 31    
Maximum Humidity 51    
Minimum Humidity 16    
Precipitation  
Precipitation 0.00 in - - ()
Sea Level Pressure  
Sea Level Pressure 30.17 in    
Wind  
Wind Speed 5 mph (East)    
Max Wind Speed 10 mph    
Max Gust Speed -    
Visibility 10 miles    
Events      
Averages and records for this station are not official NWS values.
T = Trace of Precipitation, MM = Missing Value Source: NWS Daily Summary

Daily Weather History Graph

Daily Weather History Graph

Search for Another Location

Airport or City:

Trip Planner

Search our weather history database for the weather conditions in past years. The results will help you decide how hot, cold, wet, or windy it might be!

Date:

Astronomy

Mar. 23, 2014 Rise Set
Actual Time 7:34 AM MDT 7:51 PM MDT
Civil Twilight 7:07 AM MDT 8:18 PM MDT
Nautical Twilight 6:34 AM MDT 8:51 PM MDT
Astronomical Twilight 6:02 AM MDT 9:23 PM MDT
Moon 2:13 AM MDT (3/23) 12:18 PM MDT (3/23)
Length of Visible Light 13h 11m
Length of Day
12h 17m
Waning Gibbous, 54% of the Moon is Illuminated
Mar 23
Waning Gibbous
Mar 23
Last Quarter
Mar 30
New
Apr 7
First Quarter
Apr 15
Full

Hourly Weather History & Observations

Time (MDT) Temp. Windchill Dew Point Humidity Pressure Visibility Wind Dir Wind Speed Gust Speed Precip Events Conditions
12:15 AM 37.4 °F 32.1 °F 8.6 °F 30% 30.19 in 10.0 mi West 6.9 mph - N/A   Clear
12:35 AM 39.2 °F 35.0 °F 8.6 °F 28% 30.19 in 10.0 mi West 5.8 mph - N/A   Clear
12:55 AM 37.4 °F 33.8 °F 8.6 °F 30% 30.19 in 10.0 mi WSW 4.6 mph - N/A   Clear
1:15 AM 35.6 °F 30.7 °F 10.4 °F 35% 30.19 in 10.0 mi WSW 5.8 mph - N/A   Clear
1:35 AM 33.8 °F 29.6 °F 10.4 °F 38% 30.18 in 10.0 mi West 4.6 mph - N/A   Clear
1:55 AM 32.0 °F 27.5 °F 8.6 °F 38% 30.18 in 10.0 mi WSW 4.6 mph - N/A   Clear
2:15 AM 30.2 °F - 8.6 °F 40% 30.18 in 10.0 mi Calm Calm - N/A   Clear
2:35 AM 30.2 °F 26.7 °F 8.6 °F 40% 30.18 in 10.0 mi SW 3.5 mph - N/A   Clear
2:55 AM 28.4 °F - 6.8 °F 40% 30.18 in 10.0 mi Calm Calm - N/A   Clear
3:15 AM 30.2 °F - 8.6 °F 40% 30.18 in 10.0 mi Calm Calm - N/A   Clear
3:35 AM 28.4 °F - 8.6 °F 43% 30.17 in 10.0 mi Calm Calm - N/A   Clear
3:55 AM 26.6 °F - 8.6 °F 47% 30.17 in 10.0 mi Calm Calm - N/A   Clear
4:15 AM 26.6 °F - 8.6 °F 47% 30.17 in 10.0 mi Calm Calm - N/A   Clear
4:35 AM 26.6 °F 22.6 °F 8.6 °F 47% 30.17 in 10.0 mi East 3.5 mph - N/A   Clear
4:55 AM 26.6 °F 17.5 °F 8.6 °F 47% 30.16 in 10.0 mi NNE 9.2 mph - N/A   Clear
5:15 AM 26.6 °F 16.8 °F 8.6 °F 47% 30.16 in 10.0 mi NE 10.4 mph - N/A   Clear
5:35 AM 28.4 °F 20.4 °F 8.6 °F 43% 30.16 in 10.0 mi NE 8.1 mph - N/A   Clear
5:55 AM 28.4 °F 23.3 °F 10.4 °F 47% 30.17 in 10.0 mi North 4.6 mph - N/A   Clear
6:15 AM 26.6 °F 21.2 °F 8.6 °F 47% 30.17 in 10.0 mi NNW 4.6 mph - N/A   Clear
6:35 AM 28.4 °F 24.6 °F 10.4 °F 47% 30.17 in 10.0 mi ENE 3.5 mph - N/A   Clear
6:55 AM 28.4 °F 21.2 °F 12.2 °F 51% 30.18 in 10.0 mi ENE 6.9 mph - N/A   Clear
7:15 AM 28.4 °F 24.6 °F 10.4 °F 47% 30.18 in 10.0 mi NE 3.5 mph - N/A   Clear
7:35 AM 26.6 °F - 8.6 °F 47% 30.18 in 10.0 mi Calm Calm - N/A   Clear
7:55 AM 24.8 °F 20.5 °F 8.6 °F 50% 30.19 in 10.0 mi West 3.5 mph - N/A   Clear
8:15 AM 26.6 °F - 10.4 °F 51% 30.20 in 10.0 mi Calm Calm - N/A   Clear
8:35 AM 30.2 °F 26.7 °F 10.4 °F 44% 30.20 in 10.0 mi ENE 3.5 mph - N/A   Clear
8:55 AM 30.2 °F - 10.4 °F 44% 30.20 in 10.0 mi Calm Calm - N/A   Clear
9:15 AM 33.8 °F - 12.2 °F 41% 30.20 in 10.0 mi Calm Calm - N/A   Clear
9:35 AM 33.8 °F 30.8 °F 14.0 °F 44% 30.21 in 10.0 mi East 3.5 mph - N/A   Clear
9:55 AM 35.6 °F 32.8 °F 14.0 °F 41% 30.21 in 10.0 mi ENE 3.5 mph - N/A   Clear
10:15 AM 37.4 °F 34.9 °F 14.0 °F 38% 30.21 in 10.0 mi East 3.5 mph - N/A   Clear
10:35 AM 37.4 °F 33.8 °F 14.0 °F 38% 30.21 in 10.0 mi East 4.6 mph - N/A   Clear
10:55 AM 39.2 °F 35.9 °F 14.0 °F 36% 30.22 in 10.0 mi ESE 4.6 mph - N/A   Clear
11:15 AM 39.2 °F 35.0 °F 12.2 °F 33% 30.22 in 10.0 mi East 5.8 mph - N/A   Clear
11:35 AM 42.8 °F 39.3 °F 14.0 °F 31% 30.22 in 10.0 mi ESE 5.8 mph - N/A   Clear
11:55 AM 42.8 °F 38.6 °F 14.0 °F 31% 30.22 in 10.0 mi East 6.9 mph - N/A   Clear
12:15 PM 44.6 °F 40.7 °F 12.2 °F 27% 30.21 in 10.0 mi East 6.9 mph - N/A   Clear
12:35 PM 44.6 °F 40.2 °F 12.2 °F 27% 30.21 in 10.0 mi East 8.1 mph - N/A   Clear
12:55 PM 46.4 °F 43.5 °F 12.2 °F 25% 30.20 in 10.0 mi East 5.8 mph - N/A   Clear
1:15 PM 46.4 °F 42.9 °F 12.2 °F 25% 30.20 in 10.0 mi NE 6.9 mph - N/A   Clear
1:35 PM 48.2 °F - 10.4 °F 22% 30.19 in 10.0 mi East 5.8 mph - N/A   Clear
1:55 PM 48.2 °F - 12.2 °F 24% 30.19 in 10.0 mi ESE 6.9 mph - N/A   Clear
2:15 PM 50.0 °F - 10.4 °F 20% 30.18 in 10.0 mi SE 4.6 mph - N/A   Clear
2:35 PM 51.8 °F - 10.4 °F 19% 30.17 in 10.0 mi SE 5.8 mph - N/A   Clear
2:55 PM 51.8 °F - 12.2 °F 21% 30.16 in 10.0 mi SSE 5.8 mph - N/A   Clear
3:15 PM 51.8 °F - 12.2 °F 21% 30.16 in 10.0 mi ESE 4.6 mph - N/A   Clear
3:35 PM 53.6 °F - 12.2 °F 19% 30.15 in 10.0 mi Calm Calm - N/A   Clear
3:55 PM 53.6 °F - 12.2 °F 19% 30.14 in 10.0 mi ESE 3.5 mph - N/A   Clear
4:15 PM 55.4 °F - 15.8 °F 21% 30.14 in 10.0 mi East 4.6 mph - N/A   Clear
4:35 PM 57.2 °F - 15.8 °F 20% 30.13 in 10.0 mi East 5.8 mph - N/A   Clear
4:55 PM 55.4 °F - 15.8 °F 21% 30.13 in 10.0 mi ENE 6.9 mph - N/A   Clear
5:15 PM 57.2 °F - 12.2 °F 17% 30.12 in 10.0 mi East 10.4 mph - N/A   Clear
5:35 PM 57.2 °F - 12.2 °F 17% 30.12 in 10.0 mi SE 8.1 mph - N/A   Clear
5:55 PM 57.2 °F - 12.2 °F 17% 30.11 in 10.0 mi ESE 10.4 mph - N/A   Clear
6:15 PM 57.2 °F - 10.4 °F 16% 30.11 in 10.0 mi ESE 9.2 mph - N/A   Clear
6:35 PM 57.2 °F - 10.4 °F 16% 30.11 in 10.0 mi SE 8.1 mph - N/A   Clear
6:55 PM 57.2 °F - 10.4 °F 16% 30.11 in 10.0 mi SE 10.4 mph - N/A   Clear
7:15 PM 55.4 °F - 12.2 °F 18% 30.11 in 10.0 mi SSE 10.4 mph - N/A   Clear
7:35 PM 55.4 °F - 10.4 °F 17% 30.11 in 10.0 mi South 4.6 mph - N/A   Clear
7:55 PM 55.4 °F - 10.4 °F 17% 30.11 in 10.0 mi SSE 6.9 mph - N/A   Clear
8:15 PM 53.6 °F - 10.4 °F 18% 30.12 in 10.0 mi WSW 4.6 mph - N/A   Clear
8:35 PM 51.8 °F - 10.4 °F 19% 30.12 in 10.0 mi North 3.5 mph - N/A   Clear
8:55 PM 51.8 °F - 10.4 °F 19% 30.13 in 10.0 mi West 3.5 mph - N/A   Clear
9:15 PM 50.0 °F - 8.6 °F 19% 30.13 in 10.0 mi West 4.6 mph - N/A   Clear
9:35 PM 50.0 °F - 8.6 °F 19% 30.14 in 10.0 mi WSW 4.6 mph - N/A   Clear
9:55 PM 48.2 °F - 8.6 °F 20% 30.14 in 10.0 mi West 5.8 mph - N/A   Clear
10:15 PM 48.2 °F - 8.6 °F 20% 30.15 in 10.0 mi WNW 9.2 mph - N/A   Clear
10:35 PM 48.2 °F - 8.6 °F 20% 30.16 in 10.0 mi NW 10.4 mph - N/A   Clear
10:55 PM 46.4 °F 42.4 °F 8.6 °F 22% 30.16 in 10.0 mi NW 8.1 mph - N/A   Clear
11:15 PM 50.0 °F - 10.4 °F 20% 30.17 in 10.0 mi NNW 6.9 mph - N/A   Clear
11:35 PM 48.2 °F - 10.4 °F 22% 30.18 in 10.0 mi North 6.9 mph - N/A   Clear
11:55 PM 46.4 °F 43.5 °F 10.4 °F 23% 30.18 in 10.0 mi West 5.8 mph - N/A   Clear